createdAt,value
2019-01-28T00:00:59.568Z,1.50
2019-01-28T00:03:28.465Z,1.47
2019-01-28T00:05:57.339Z,1.30
2019-01-28T00:08:26.440Z,1.47
2019-01-28T00:10:55.304Z,1.60
2019-01-28T00:13:24.409Z,1.70
2019-01-28T00:15:53.940Z,1.43
2019-01-28T00:18:22.804Z,1.40
2019-01-28T00:20:51.580Z,1.43
2019-01-28T00:23:20.366Z,1.40
2019-01-28T00:25:49.222Z,1.43
2019-01-28T00:28:18.099Z,1.40
2019-01-28T00:30:47.076Z,2.00
2019-01-28T00:33:15.857Z,1.30
2019-01-28T00:35:44.705Z,1.50
2019-01-28T00:38:13.868Z,1.40
2019-01-28T00:40:42.753Z,1.40
2019-01-28T00:43:11.809Z,1.30
2019-01-28T00:45:40.598Z,1.73
2019-01-28T00:48:09.727Z,1.30
2019-01-28T00:50:38.736Z,1.40
2019-01-28T00:53:07.856Z,1.80
2019-01-28T00:55:36.708Z,1.50
2019-01-28T00:58:05.648Z,1.53
2019-01-28T01:00:34.735Z,1.50
2019-01-28T01:03:03.812Z,1.40
2019-01-28T01:05:32.672Z,1.60
2019-01-28T01:08:01.585Z,1.30
2019-01-28T01:10:30.480Z,2.00
2019-01-28T01:12:59.364Z,1.70
2019-01-28T01:15:28.241Z,1.40
2019-01-28T01:17:57.189Z,1.30
2019-01-28T01:20:26.208Z,1.40
2019-01-28T01:22:55.102Z,1.63
2019-01-28T01:25:24.208Z,1.70
2019-01-28T01:27:53.191Z,1.50
2019-01-28T01:30:22.187Z,1.40
2019-01-28T01:32:51.120Z,1.40
2019-01-28T01:35:20.119Z,1.37
2019-01-28T01:37:49.041Z,1.40
2019-01-28T01:40:17.996Z,1.50
2019-01-28T01:42:46.788Z,1.50
2019-01-28T01:45:17.325Z,1.50
2019-01-28T01:47:46.259Z,1.80
2019-01-28T01:50:15.515Z,1.50
2019-01-28T01:52:44.345Z,1.47
2019-01-28T01:55:13.936Z,1.30
2019-01-28T01:57:42.909Z,1.77
2019-01-28T02:00:14.508Z,1.70
2019-01-28T02:02:43.371Z,1.80
2019-01-28T02:05:12.350Z,1.60
2019-01-28T02:07:41.203Z,1.70
2019-01-28T02:10:11.997Z,1.70
2019-01-28T02:12:40.862Z,1.53
2019-01-28T02:15:12.338Z,1.57
2019-01-28T02:17:41.453Z,1.50
2019-01-28T02:20:10.937Z,1.80
2019-01-28T02:22:39.952Z,1.60
2019-01-28T02:25:09.449Z,2.03
2019-01-28T02:27:38.325Z,1.70
2019-01-28T02:30:08.969Z,2.13
2019-01-28T02:32:37.846Z,1.50
2019-01-28T02:35:07.078Z,1.70
2019-01-28T02:37:35.935Z,1.53
2019-01-28T02:40:08.340Z,1.90
2019-01-28T02:42:37.206Z,1.67
2019-01-28T02:45:06.951Z,1.60
2019-01-28T02:47:35.736Z,1.47
2019-01-28T02:50:06.023Z,2.03
2019-01-28T02:52:34.895Z,1.70
2019-01-28T02:55:04.795Z,1.30
2019-01-28T02:57:33.667Z,1.57
2019-01-28T03:00:02.572Z,2.00
2019-01-28T03:02:31.506Z,1.73
2019-01-28T03:05:00.344Z,1.60
2019-01-28T03:07:29.461Z,1.70
2019-01-28T03:09:58.312Z,1.50
2019-01-28T03:12:27.253Z,1.80
2019-01-28T03:14:56.055Z,1.50
2019-01-28T03:17:24.868Z,1.70
2019-01-28T03:19:54.058Z,2.87
2019-01-28T03:22:23.477Z,1.50
2019-01-28T03:24:52.285Z,1.60
2019-01-28T03:27:21.154Z,1.63
2019-01-28T03:29:50.066Z,1.60
2019-01-28T03:32:19.163Z,1.60
2019-01-28T03:34:48.128Z,2.33
2019-01-28T03:37:17.017Z,1.40
2019-01-28T03:39:45.949Z,1.60
2019-01-28T03:42:14.778Z,1.30
2019-01-28T03:44:43.690Z,1.60
2019-01-28T03:47:12.611Z,1.67
2019-01-28T03:49:41.593Z,1.70
2019-01-28T03:52:12.150Z,1.60
2019-01-28T03:54:40.934Z,1.57
2019-01-28T03:57:09.753Z,1.40
2019-01-28T03:59:38.621Z,1.60
2019-01-28T04:02:07.582Z,1.93
2019-01-28T04:04:36.501Z,1.60
2019-01-28T04:07:05.439Z,1.30
2019-01-28T04:09:34.345Z,1.50
2019-01-28T04:12:03.271Z,1.60
2019-01-28T04:14:32.156Z,1.90
2019-01-28T04:17:01.067Z,2.00
2019-01-28T04:19:29.924Z,1.40
2019-01-28T04:21:58.804Z,1.50
2019-01-28T04:24:27.708Z,1.60
2019-01-28T04:26:56.622Z,1.73
2019-01-28T04:29:25.534Z,1.60
2019-01-28T04:31:54.351Z,2.00
2019-01-28T04:34:23.380Z,1.67
2019-01-28T04:36:52.220Z,1.40
2019-01-28T04:39:21.005Z,1.40
2019-01-28T04:41:49.992Z,1.40
2019-01-28T04:44:18.938Z,1.40
2019-01-28T04:46:47.759Z,2.07
2019-01-28T04:49:16.576Z,1.30
2019-01-28T04:51:45.425Z,1.53
2019-01-28T04:54:14.602Z,1.80
2019-01-28T04:56:43.405Z,2.67
2019-01-28T04:59:12.332Z,2.00
2019-01-28T05:01:41.212Z,1.67
2019-01-28T05:04:10.348Z,1.57
2019-01-28T05:06:39.216Z,1.40
2019-01-28T05:09:09.444Z,1.60
2019-01-28T05:11:38.393Z,1.80
2019-01-28T05:14:07.489Z,1.53
2019-01-28T05:16:36.366Z,1.70
2019-01-28T05:19:05.296Z,1.47
2019-01-28T05:21:34.154Z,1.40
2019-01-28T05:24:03.067Z,1.80
2019-01-28T05:26:32.072Z,1.37
2019-01-28T05:29:00.873Z,1.80
2019-01-28T05:31:29.840Z,1.47
2019-01-28T05:33:58.882Z,1.80
2019-01-28T05:36:27.906Z,1.67
2019-01-28T05:38:56.741Z,1.30
2019-01-28T05:41:25.604Z,1.50
2019-01-28T05:43:54.397Z,1.70
2019-01-28T05:46:23.296Z,1.60
2019-01-28T05:48:52.098Z,1.77
2019-01-28T05:51:20.968Z,1.93
2019-01-28T05:53:49.832Z,1.30
2019-01-28T05:56:18.663Z,2.53
2019-01-28T05:58:47.440Z,1.60
2019-01-28T06:01:16.312Z,1.80
2019-01-28T06:03:45.229Z,1.50
2019-01-28T06:06:14.108Z,1.80
2019-01-28T06:08:43.166Z,1.30
2019-01-28T06:11:11.940Z,1.40
2019-01-28T06:13:40.734Z,1.40
2019-01-28T06:16:09.713Z,1.40
2019-01-28T06:18:38.577Z,1.40
2019-01-28T06:21:07.367Z,1.50
2019-01-28T06:23:36.221Z,1.40
2019-01-28T06:26:05.284Z,1.30
2019-01-28T06:28:34.143Z,1.30
2019-01-28T06:31:03.084Z,1.30
2019-01-28T06:33:31.878Z,1.50
2019-01-28T06:36:00.676Z,1.77
2019-01-28T06:38:29.457Z,1.20
2019-01-28T06:40:58.253Z,1.37
2019-01-28T06:43:27.101Z,1.50
2019-01-28T06:45:56.214Z,1.60
2019-01-28T06:48:25.136Z,1.83
2019-01-28T06:50:53.925Z,1.60
2019-01-28T06:53:22.819Z,1.60
2019-01-28T06:55:51.696Z,1.30
2019-01-28T06:58:20.549Z,1.50
2019-01-28T07:00:49.677Z,1.30
2019-01-28T07:03:18.673Z,1.83
2019-01-28T07:05:47.711Z,1.53
2019-01-28T07:08:16.578Z,1.57
2019-01-28T07:10:45.533Z,1.50
2019-01-28T07:13:14.644Z,1.60
2019-01-28T07:15:43.436Z,1.40
2019-01-28T07:18:12.238Z,1.40
2019-01-28T07:20:41.149Z,1.53
2019-01-28T07:23:09.917Z,1.30
2019-01-28T07:25:38.713Z,1.53
2019-01-28T07:28:07.645Z,1.50
2019-01-28T07:30:37.818Z,1.77
2019-01-28T07:33:06.849Z,1.53
2019-01-28T07:35:35.935Z,1.87
2019-01-28T07:38:05.182Z,1.60
2019-01-28T07:40:34.085Z,1.60
2019-01-28T07:43:02.972Z,1.30
2019-01-28T07:45:44.634Z,1.63
2019-01-28T07:48:07.436Z,1.40
2019-01-28T07:50:36.304Z,1.40
2019-01-28T07:53:05.452Z,2.00
2019-01-28T07:55:34.435Z,1.70
2019-01-28T07:58:03.356Z,1.50
2019-01-28T08:00:32.301Z,1.60
2019-01-28T08:03:01.435Z,1.50
2019-01-28T08:05:30.408Z,2.23
2019-01-28T08:07:59.309Z,1.50
2019-01-28T08:10:28.240Z,1.43
2019-01-28T08:12:57.201Z,1.50
2019-01-28T08:15:26.642Z,1.80
2019-01-28T08:17:55.583Z,1.73
2019-01-28T08:20:24.775Z,1.50
2019-01-28T08:22:53.715Z,2.13
2019-01-28T08:25:22.685Z,1.70
2019-01-28T08:27:51.625Z,1.60
2019-01-28T08:30:25.883Z,1.53
2019-01-28T08:32:54.865Z,1.40
2019-01-28T08:35:24.062Z,1.40
2019-01-28T08:37:53.266Z,1.70
2019-01-28T08:40:22.902Z,1.30
2019-01-28T08:42:51.844Z,1.33
2019-01-28T08:45:20.699Z,1.90
2019-01-28T08:47:49.607Z,1.50
2019-01-28T08:50:20.529Z,1.43
2019-01-28T08:52:49.441Z,1.40
2019-01-28T08:55:19.725Z,1.50
2019-01-28T08:57:48.881Z,1.57
2019-01-28T09:00:20.249Z,1.40
2019-01-28T09:02:49.230Z,1.60
2019-01-28T09:05:18.375Z,1.33
2019-01-28T09:07:47.350Z,1.40
2019-01-28T09:10:17.087Z,1.40
2019-01-28T09:12:47.203Z,1.50
2019-01-28T09:15:17.989Z,1.30
2019-01-28T09:17:46.964Z,1.33
2019-01-28T09:20:18.186Z,1.30
2019-01-28T09:22:47.003Z,1.60
2019-01-28T09:25:16.167Z,1.50
2019-01-28T09:27:45.369Z,1.40
2019-01-28T09:30:21.062Z,1.37
2019-01-28T09:32:49.904Z,1.30
2019-01-28T09:35:18.966Z,1.43
2019-01-28T09:37:48.532Z,1.60
2019-01-28T09:40:19.178Z,1.40
2019-01-28T09:42:48.247Z,1.50
2019-01-28T09:45:22.776Z,2.37
2019-01-28T09:47:51.740Z,1.53
2019-01-28T09:50:21.750Z,1.80
2019-01-28T09:52:51.997Z,1.47
2019-01-28T09:55:21.047Z,1.50
2019-01-28T09:57:50.098Z,1.63
2019-01-28T10:00:30.765Z,1.80
2019-01-28T10:03:00.137Z,1.30
2019-01-28T10:05:29.457Z,1.40
2019-01-28T10:07:58.684Z,1.30
2019-01-28T10:10:27.727Z,1.50
2019-01-28T10:12:56.938Z,1.40
2019-01-28T10:15:28.689Z,1.60
2019-01-28T10:17:56.721Z,1.73
2019-01-28T10:20:30.973Z,1.40
2019-01-28T10:22:59.915Z,1.40
2019-01-28T10:25:29.315Z,1.50
2019-01-28T10:27:58.259Z,1.50
2019-01-28T10:30:29.725Z,1.43
2019-01-28T10:32:58.708Z,1.60
2019-01-28T10:35:29.057Z,1.37
2019-01-28T10:37:58.149Z,1.50
2019-01-28T10:40:29.141Z,1.30
2019-01-28T10:42:58.132Z,1.80
2019-01-28T10:45:27.468Z,1.53
2019-01-28T10:48:00.760Z,1.60
2019-01-28T10:50:27.493Z,1.50
2019-01-28T10:52:56.456Z,1.70
2019-01-28T10:55:25.922Z,1.70
2019-01-28T10:57:55.344Z,1.20
2019-01-28T11:00:26.697Z,2.43
2019-01-28T11:02:55.637Z,1.80
2019-01-28T11:05:24.724Z,1.43
2019-01-28T11:07:53.672Z,1.63
2019-01-28T11:10:22.775Z,1.40
2019-01-28T11:12:51.791Z,1.77
2019-01-28T11:15:22.853Z,1.53
2019-01-28T11:17:52.269Z,1.50
2019-01-28T11:20:21.386Z,1.70
2019-01-28T11:22:50.400Z,1.40
2019-01-28T11:25:25.365Z,1.83
2019-01-28T11:27:54.320Z,2.00
2019-01-28T11:30:38.661Z,1.73
2019-01-28T11:33:07.808Z,1.50
2019-01-28T11:35:37.243Z,1.60
2019-01-28T11:38:06.514Z,1.60
2019-01-28T11:40:35.528Z,1.60
2019-01-28T11:43:06.305Z,1.80
2019-01-28T11:45:37.772Z,1.70
2019-01-28T11:48:07.701Z,1.40
2019-01-28T11:50:36.636Z,1.40
2019-01-28T11:53:05.959Z,1.40
2019-01-28T11:55:34.833Z,1.60
2019-01-28T11:58:04.580Z,1.80
2019-01-28T12:00:44.926Z,1.67
2019-01-28T12:03:13.831Z,1.57
2019-01-28T12:05:43.012Z,1.40
2019-01-28T12:08:12.005Z,1.57
2019-01-28T12:10:41.140Z,1.50
2019-01-28T12:13:10.165Z,2.93
2019-01-28T12:15:39.413Z,1.70
2019-01-28T12:18:08.387Z,1.70
2019-01-28T12:20:37.205Z,1.53
2019-01-28T12:23:06.212Z,1.60
2019-01-28T12:25:35.886Z,1.40
2019-01-28T12:28:05.393Z,1.70
2019-01-28T12:30:34.904Z,1.50
2019-01-28T12:33:03.991Z,1.50
2019-01-28T12:35:32.993Z,1.73
2019-01-28T12:38:02.050Z,2.20
2019-01-28T12:40:31.039Z,1.70
2019-01-28T12:43:00.005Z,1.50
2019-01-28T12:45:28.988Z,1.93
2019-01-28T12:47:58.007Z,1.50
2019-01-28T12:50:27.301Z,1.60
2019-01-28T12:52:56.144Z,1.40
2019-01-28T12:55:25.355Z,1.67
2019-01-28T12:57:54.321Z,1.50
2019-01-28T13:00:28.480Z,1.70
2019-01-28T13:02:57.388Z,1.50
2019-01-28T13:05:26.871Z,1.50
2019-01-28T13:07:56.161Z,1.70
2019-01-28T13:10:25.554Z,1.40
2019-01-28T13:12:54.546Z,1.90
2019-01-28T13:15:25.335Z,3.43
2019-01-28T13:17:55.107Z,1.50
2019-01-28T13:20:24.424Z,1.47
2019-01-28T13:22:53.394Z,1.90
2019-01-28T13:25:23.655Z,1.67
2019-01-28T13:27:52.921Z,1.50
2019-01-28T13:30:27.085Z,1.53
2019-01-28T13:32:57.689Z,1.50
2019-01-28T13:35:26.569Z,1.63
2019-01-28T13:37:55.560Z,1.73
2019-01-28T13:40:24.770Z,1.50
2019-01-28T13:42:53.785Z,1.30
2019-01-28T13:45:23.205Z,1.83
2019-01-28T13:47:53.189Z,1.40
2019-01-28T13:50:22.563Z,1.40
2019-01-28T13:52:51.633Z,1.40
2019-01-28T13:55:21.273Z,1.50
2019-01-28T13:57:50.396Z,1.53
2019-01-28T14:00:21.763Z,1.50
2019-01-28T14:02:50.744Z,1.90
2019-01-28T14:05:19.812Z,1.60
2019-01-28T14:07:49.729Z,1.60
2019-01-28T14:10:18.816Z,1.70
2019-01-28T14:12:47.829Z,1.93
2019-01-28T14:15:22.747Z,1.70
2019-01-28T14:17:51.771Z,1.40
2019-01-28T14:20:20.916Z,1.73
2019-01-28T14:22:50.129Z,1.90
2019-01-28T14:25:19.139Z,1.67
2019-01-28T14:27:49.920Z,1.83
2019-01-28T14:30:25.014Z,1.87
2019-01-28T14:32:53.981Z,1.60
2019-01-28T14:35:23.145Z,1.40
2019-01-28T14:37:52.293Z,1.63
2019-01-28T14:40:21.965Z,1.60
2019-01-28T14:42:50.912Z,1.30
2019-01-28T14:45:19.878Z,1.40
2019-01-28T14:47:48.685Z,1.50
2019-01-28T14:50:23.240Z,1.70
2019-01-28T14:52:52.388Z,2.17
2019-01-28T14:55:21.558Z,1.50
2019-01-28T14:57:50.585Z,1.80
2019-01-28T15:00:22.558Z,1.60
2019-01-28T15:02:51.813Z,1.83
2019-01-28T15:05:20.685Z,1.50
2019-01-28T15:07:49.742Z,1.73
2019-01-28T15:10:19.062Z,1.63
2019-01-28T15:12:48.005Z,2.00
2019-01-28T15:15:22.230Z,1.60
2019-01-28T15:17:51.281Z,1.60
2019-01-28T15:20:20.313Z,1.60
2019-01-28T15:22:49.485Z,1.70
2019-01-28T15:25:18.509Z,1.30
2019-01-28T15:27:47.717Z,1.70
2019-01-28T15:30:22.261Z,1.67
2019-01-28T15:32:51.398Z,1.47
2019-01-28T15:35:20.383Z,1.57
2019-01-28T15:37:49.490Z,1.40
2019-01-28T15:40:20.914Z,1.67
2019-01-28T15:42:49.869Z,1.50
2019-01-28T15:45:21.081Z,1.50
2019-01-28T15:47:49.911Z,1.60
2019-01-28T15:50:20.491Z,1.57
2019-01-28T15:52:51.142Z,1.60
2019-01-28T15:55:26.605Z,1.70
2019-01-28T15:57:55.500Z,1.37
2019-01-28T16:00:26.856Z,1.60
2019-01-28T16:02:56.180Z,1.67
2019-01-28T16:05:25.102Z,1.47
2019-01-28T16:07:54.090Z,1.93
2019-01-28T16:10:22.972Z,1.43
2019-01-28T16:12:51.920Z,1.97
2019-01-28T16:15:26.389Z,1.77
2019-01-28T16:17:55.525Z,1.50
2019-01-28T16:20:24.464Z,1.40
2019-01-28T16:22:53.858Z,1.70
2019-01-28T16:25:22.802Z,1.90
2019-01-28T16:27:51.684Z,2.27
2019-01-28T16:30:26.468Z,1.70
2019-01-28T16:32:53.941Z,1.87
2019-01-28T16:35:23.045Z,1.97
2019-01-28T16:37:52.229Z,1.50
2019-01-28T16:40:23.415Z,1.67
2019-01-28T16:42:52.677Z,1.80
2019-01-28T16:45:23.109Z,1.50
2019-01-28T16:47:52.040Z,1.50
2019-01-28T16:50:27.325Z,1.70
2019-01-28T16:52:57.226Z,1.80
2019-01-28T16:55:26.192Z,1.70
2019-01-28T16:57:56.260Z,1.40
2019-01-28T17:00:30.020Z,1.60
2019-01-28T17:02:58.965Z,1.60
2019-01-28T17:05:28.885Z,1.67
2019-01-28T17:07:58.089Z,1.80
2019-01-28T17:10:27.053Z,1.70
2019-01-28T17:12:55.989Z,1.40
2019-01-28T17:15:25.035Z,1.60
2019-01-28T17:17:53.988Z,1.43
2019-01-28T17:20:34.910Z,1.70
2019-01-28T17:22:58.513Z,1.73
2019-01-28T17:25:30.172Z,1.83
2019-01-28T17:27:59.236Z,2.43
2019-01-28T17:30:42.213Z,1.90
2019-01-28T17:33:11.546Z,1.90
2019-01-28T17:35:40.521Z,1.60
2019-01-28T17:38:10.170Z,1.60
2019-01-28T17:40:40.423Z,1.80
2019-01-28T17:43:10.304Z,1.50
2019-01-28T17:45:39.945Z,2.00
2019-01-28T17:48:09.128Z,2.53
2019-01-28T17:50:43.358Z,2.20
2019-01-28T17:53:08.900Z,2.37
2019-01-28T17:55:37.864Z,2.17
2019-01-28T17:58:09.281Z,2.23
2019-01-28T18:00:54.088Z,1.83
2019-01-28T18:03:23.448Z,1.73
2019-01-28T18:05:52.864Z,2.10
2019-01-28T18:08:22.257Z,2.10
2019-01-28T18:10:51.575Z,1.70
2019-01-28T18:13:21.060Z,1.50
2019-01-28T18:15:50.764Z,1.80
2019-01-28T18:18:20.220Z,1.70
2019-01-28T18:40:44.869Z,2.47
2019-01-28T18:43:14.383Z,2.37
2019-01-28T18:45:43.934Z,2.20
2019-01-28T18:48:13.511Z,2.00
2019-01-28T18:50:44.758Z,2.70
2019-01-28T18:53:15.434Z,2.47
2019-01-28T18:55:44.759Z,2.43
2019-01-28T18:58:14.515Z,2.10
2019-01-28T19:00:43.832Z,1.90
2019-01-28T19:03:13.237Z,1.93
2019-01-28T19:06:01.621Z,2.60
2019-01-28T19:08:52.784Z,2.13
2019-01-28T19:11:47.332Z,2.30
2019-01-28T19:14:38.490Z,2.00
2019-01-28T19:18:21.612Z,2.57
2019-01-28T19:28:55.496Z,2.50
2019-01-28T20:01:19.635Z,2.60
2019-01-28T20:03:49.181Z,2.00
2019-01-28T20:06:22.011Z,2.90
2019-01-28T20:08:55.633Z,2.77
2019-01-28T20:11:26.289Z,3.40
2019-01-28T20:13:56.999Z,3.30
2019-01-28T20:20:21.913Z,3.40
2019-01-28T20:22:56.353Z,2.30
2019-01-28T20:25:25.806Z,2.63
2019-01-28T20:27:56.986Z,2.47
2019-01-28T20:30:27.391Z,3.23
2019-01-28T20:33:01.034Z,3.00
2019-01-28T20:35:32.043Z,2.50
2019-01-28T20:38:01.329Z,2.50
2019-01-28T20:40:30.818Z,3.17
2019-01-28T20:43:00.466Z,2.60
2019-01-28T20:45:29.847Z,2.77
2019-01-28T20:48:21.801Z,2.67
2019-01-28T20:50:51.135Z,3.43
2019-01-28T20:53:23.270Z,2.77
2019-01-28T20:55:52.798Z,3.17
2019-01-28T20:58:22.388Z,2.83
2019-01-28T21:01:03.165Z,2.20
2019-01-28T21:03:51.598Z,2.00
2019-01-28T21:06:40.247Z,2.93
2019-01-28T21:09:11.837Z,2.73
2019-01-28T21:11:45.479Z,2.30
2019-01-28T21:14:17.618Z,3.33
2019-01-28T21:16:48.634Z,2.60
2019-01-28T21:19:18.079Z,2.60
2019-01-28T21:21:47.521Z,3.07
2019-01-28T21:24:17.005Z,2.97
2019-01-28T21:26:46.442Z,2.67
2019-01-28T21:29:33.145Z,2.93
2019-01-28T21:32:03.633Z,3.07
2019-01-28T21:34:33.101Z,2.43
2019-01-28T21:37:24.966Z,2.73
2019-01-28T21:39:55.622Z,2.83
2019-01-28T21:42:24.905Z,2.50
2019-01-28T21:44:54.139Z,2.30
2019-01-28T21:47:23.532Z,2.07
2019-01-28T21:49:52.773Z,2.40
2019-01-28T21:52:22.013Z,2.90
2019-01-28T21:54:51.681Z,2.33
2019-01-28T21:57:21.170Z,3.27
2019-01-28T21:59:50.408Z,3.13
2019-01-28T22:02:19.820Z,2.93
2019-01-28T22:04:48.997Z,2.07
2019-01-28T22:07:18.230Z,2.67
2019-01-28T22:09:47.644Z,2.63
2019-01-28T22:12:16.959Z,4.33
2019-01-28T22:14:46.241Z,2.80
2019-01-28T22:17:15.506Z,3.57
2019-01-28T22:19:44.781Z,3.43
2019-01-28T22:22:14.028Z,3.13
2019-01-28T22:24:43.299Z,3.10
2019-01-28T22:27:12.617Z,2.40
2019-01-28T22:29:42.070Z,3.00
2019-01-28T22:32:13.499Z,2.47
2019-01-28T22:34:47.645Z,2.70
2019-01-28T22:37:13.963Z,3.43
2019-01-28T22:39:43.204Z,2.40
2019-01-28T22:42:21.050Z,3.30
2019-01-28T22:44:43.461Z,4.23
2019-01-28T22:47:12.848Z,3.20
2019-01-28T22:49:42.058Z,3.47
2019-01-28T22:52:11.650Z,3.50
2019-01-28T22:54:41.039Z,3.00
2019-01-28T22:57:10.265Z,2.63
2019-01-28T22:59:39.508Z,2.53
2019-01-28T23:02:08.766Z,2.90
2019-01-28T23:04:40.291Z,2.77
2019-01-28T23:07:09.683Z,3.30
2019-01-28T23:13:37.023Z,2.73
2019-01-28T23:16:06.082Z,2.10
2019-01-28T23:18:35.671Z,3.60
2019-01-28T23:21:04.879Z,2.50
2019-01-28T23:23:34.141Z,3.37
2019-01-28T23:26:03.154Z,2.63
2019-01-28T23:28:32.151Z,2.83
2019-01-28T23:31:01.757Z,2.77
2019-01-28T23:33:30.711Z,2.90
2019-01-28T23:35:59.598Z,2.43
2019-01-28T23:38:28.502Z,2.83
2019-01-28T23:40:57.410Z,2.50
2019-01-28T23:43:26.348Z,2.50
2019-01-28T23:45:55.665Z,2.97
2019-01-28T23:48:24.610Z,3.13
2019-01-28T23:50:53.615Z,2.37
2019-01-28T23:53:22.514Z,2.60
2019-01-28T23:55:51.497Z,2.77
2019-01-28T23:58:20.333Z,2.30
